Terminal Aerodrome Forecast
Issued by NWS Upton, NY

Current Version | Previous Version | Text Only | Print | Product List | Glossary On
Versions: 1 2 3 4 5 6 7 8 9 10 11 12 13 14 15 16 17 18 19 20 21 22 23 24 25 26 27 28 29 30 31
000
FTUS41 KOKX 022300
TAFLGA
TAF
KLGA 022330Z 0300/0324 31014G22KT P6SM SKC
     FM030100 32012KT P6SM SKC
     FM030600 32007KT P6SM SCT250
     FM031500 VRB05KT P6SM FEW015 SCT150
     FM031800 16007KT P6SM SCT020 BKN120
     FM032200 16011KT 6SM -SN BKN025 OVC060=

USA.gov is the U.S. government's official web portal to all federal, state and local government web resources and services.